sensor_id;sensor_type;location;lat;lon;timestamp;temperature;humidity
24049;DHT22;12250;50.956;4.746;2023-02-04T00:00:50;10.80;99.90
24049;DHT22;12250;50.956;4.746;2023-02-04T00:03:16;10.80;99.90
24049;DHT22;12250;50.956;4.746;2023-02-04T00:05:42;10.70;99.90
24049;DHT22;12250;50.956;4.746;2023-02-04T00:08:08;10.70;99.90
24049;DHT22;12250;50.956;4.746;2023-02-04T00:10:35;10.70;99.90
24049;DHT22;12250;50.956;4.746;2023-02-04T00:13:02;10.70;99.90
24049;DHT22;12250;50.956;4.746;2023-02-04T00:15:27;10.70;99.90
24049;DHT22;12250;50.956;4.746;2023-02-04T00:17:53;10.70;99.90
24049;DHT22;12250;50.956;4.746;2023-02-04T00:20:19;10.70;99.90
24049;DHT22;12250;50.956;4.746;2023-02-04T00:22:44;10.70;99.90
24049;DHT22;12250;50.956;4.746;2023-02-04T00:25:11;10.70;99.90
24049;DHT22;12250;50.956;4.746;2023-02-04T00:27:37;10.70;99.90
24049;DHT22;12250;50.956;4.746;2023-02-04T00:30:04;10.70;99.90
24049;DHT22;12250;50.956;4.746;2023-02-04T00:32:30;10.70;99.90
24049;DHT22;12250;50.956;4.746;2023-02-04T00:34:56;10.70;99.90
24049;DHT22;12250;50.956;4.746;2023-02-04T00:37:22;10.70;99.90
24049;DHT22;12250;50.956;4.746;2023-02-04T00:39:47;10.70;99.90
24049;DHT22;12250;50.956;4.746;2023-02-04T00:42:13;10.70;99.90
24049;DHT22;12250;50.956;4.746;2023-02-04T00:44:39;10.70;99.90
24049;DHT22;12250;50.956;4.746;2023-02-04T00:47:04;10.70;99.90
24049;DHT22;12250;50.956;4.746;2023-02-04T00:49:32;10.70;99.90
24049;DHT22;12250;50.956;4.746;2023-02-04T00:51:57;10.70;99.90
24049;DHT22;12250;50.956;4.746;2023-02-04T00:54:23;10.60;99.90
24049;DHT22;12250;50.956;4.746;2023-02-04T00:56:49;10.60;99.90
24049;DHT22;12250;50.956;4.746;2023-02-04T00:59:14;10.60;99.90
24049;DHT22;12250;50.956;4.746;2023-02-04T01:01:40;10.60;99.90
24049;DHT22;12250;50.956;4.746;2023-02-04T01:04:05;10.60;99.90
24049;DHT22;12250;50.956;4.746;2023-02-04T01:06:31;10.60;99.90
24049;DHT22;12250;50.956;4.746;2023-02-04T01:08:57;10.60;99.90
24049;DHT22;12250;50.956;4.746;2023-02-04T01:11:23;10.60;99.90
24049;DHT22;12250;50.956;4.746;2023-02-04T01:13:48;10.50;99.90
24049;DHT22;12250;50.956;4.746;2023-02-04T01:16:14;10.30;99.90
24049;DHT22;12250;50.956;4.746;2023-02-04T01:18:40;10.10;99.90
24049;DHT22;12250;50.956;4.746;2023-02-04T01:21:05;9.90;99.90
24049;DHT22;12250;50.956;4.746;2023-02-04T01:23:31;9.70;99.90
24049;DHT22;12250;50.956;4.746;2023-02-04T01:25:57;9.40;99.90
24049;DHT22;12250;50.956;4.746;2023-02-04T01:28:22;9.30;99.90
24049;DHT22;12250;50.956;4.746;2023-02-04T01:30:48;9.30;99.90
24049;DHT22;12250;50.956;4.746;2023-02-04T01:33:14;9.20;99.90
24049;DHT22;12250;50.956;4.746;2023-02-04T01:35:39;9.10;99.90
24049;DHT22;12250;50.956;4.746;2023-02-04T01:38:05;9.10;99.90
24049;DHT22;12250;50.956;4.746;2023-02-04T01:40:31;9.20;99.90
24049;DHT22;12250;50.956;4.746;2023-02-04T01:42:57;9.20;99.90
24049;DHT22;12250;50.956;4.746;2023-02-04T01:45:22;9.00;99.90
24049;DHT22;12250;50.956;4.746;2023-02-04T01:47:48;9.00;99.90
24049;DHT22;12250;50.956;4.746;2023-02-04T01:50:16;8.90;99.90
24049;DHT22;12250;50.956;4.746;2023-02-04T01:52:43;8.90;99.90
24049;DHT22;12250;50.956;4.746;2023-02-04T01:55:23;8.90;99.90
24049;DHT22;12250;50.956;4.746;2023-02-04T01:57:49;8.90;99.90
24049;DHT22;12250;50.956;4.746;2023-02-04T02:00:23;8.90;99.90
24049;DHT22;12250;50.956;4.746;2023-02-04T02:02:50;8.90;99.90
24049;DHT22;12250;50.956;4.746;2023-02-04T02:05:44;8.90;99.90
24049;DHT22;12250;50.956;4.746;2023-02-04T02:08:11;8.90;99.90
24049;DHT22;12250;50.956;4.746;2023-02-04T02:10:40;8.80;99.90
24049;DHT22;12250;50.956;4.746;2023-02-04T02:13:07;8.80;99.90
24049;DHT22;12250;50.956;4.746;2023-02-04T02:15:34;8.80;99.90
24049;DHT22;12250;50.956;4.746;2023-02-04T02:18:00;8.90;99.90
24049;DHT22;12250;50.956;4.746;2023-02-04T02:20:26;9.00;99.90
24049;DHT22;12250;50.956;4.746;2023-02-04T02:25:38;9.00;99.90
24049;DHT22;12250;50.956;4.746;2023-02-04T02:28:09;9.00;99.90
24049;DHT22;12250;50.956;4.746;2023-02-04T02:30:36;9.10;99.90
24049;DHT22;12250;50.956;4.746;2023-02-04T02:33:02;9.10;99.90
24049;DHT22;12250;50.956;4.746;2023-02-04T02:35:28;9.20;99.90
24049;DHT22;12250;50.956;4.746;2023-02-04T02:37:54;9.20;99.90
24049;DHT22;12250;50.956;4.746;2023-02-04T02:40:19;9.30;99.90
24049;DHT22;12250;50.956;4.746;2023-02-04T02:42:48;9.30;99.90
24049;DHT22;12250;50.956;4.746;2023-02-04T02:45:28;9.30;99.90
24049;DHT22;12250;50.956;4.746;2023-02-04T02:47:55;9.40;99.90
24049;DHT22;12250;50.956;4.746;2023-02-04T02:50:24;9.40;99.90
24049;DHT22;12250;50.956;4.746;2023-02-04T02:52:51;9.40;99.90
24049;DHT22;12250;50.956;4.746;2023-02-04T02:55:19;9.40;99.90
24049;DHT22;12250;50.956;4.746;2023-02-04T02:57:48;9.50;99.90
24049;DHT22;12250;50.956;4.746;2023-02-04T03:00:22;9.50;99.90
24049;DHT22;12250;50.956;4.746;2023-02-04T03:03:05;9.50;99.90
24049;DHT22;12250;50.956;4.746;2023-02-04T03:05:35;9.40;99.90
24049;DHT22;12250;50.956;4.746;2023-02-04T03:08:03;9.50;99.90
24049;DHT22;12250;50.956;4.746;2023-02-04T03:10:29;9.50;99.90
24049;DHT22;12250;50.956;4.746;2023-02-04T03:12:55;9.50;99.90
24049;DHT22;12250;50.956;4.746;2023-02-04T03:15:21;9.50;99.90
24049;DHT22;12250;50.956;4.746;2023-02-04T03:17:47;9.50;99.90
24049;DHT22;12250;50.956;4.746;2023-02-04T03:20:15;9.50;99.90
24049;DHT22;12250;50.956;4.746;2023-02-04T03:22:41;9.50;99.90
24049;DHT22;12250;50.956;4.746;2023-02-04T03:25:07;9.50;99.90
24049;DHT22;12250;50.956;4.746;2023-02-04T03:27:33;9.50;99.90
24049;DHT22;12250;50.956;4.746;2023-02-04T03:29:58;9.50;99.90
24049;DHT22;12250;50.956;4.746;2023-02-04T03:32:24;9.50;99.90
24049;DHT22;12250;50.956;4.746;2023-02-04T03:34:50;9.50;99.90
24049;DHT22;12250;50.956;4.746;2023-02-04T03:37:15;9.50;99.90
24049;DHT22;12250;50.956;4.746;2023-02-04T03:39:41;9.50;99.90
24049;DHT22;12250;50.956;4.746;2023-02-04T03:42:07;9.50;99.90
24049;DHT22;12250;50.956;4.746;2023-02-04T03:44:32;9.50;99.90
24049;DHT22;12250;50.956;4.746;2023-02-04T03:46:58;9.50;99.90
24049;DHT22;12250;50.956;4.746;2023-02-04T03:49:24;9.50;99.90
24049;DHT22;12250;50.956;4.746;2023-02-04T03:51:50;9.50;99.90
24049;DHT22;12250;50.956;4.746;2023-02-04T03:54:16;9.50;99.90
24049;DHT22;12250;50.956;4.746;2023-02-04T03:56:44;9.50;99.90
24049;DHT22;12250;50.956;4.746;2023-02-04T03:59:10;9.40;99.90
24049;DHT22;12250;50.956;4.746;2023-02-04T04:01:35;9.40;99.90
24049;DHT22;12250;50.956;4.746;2023-02-04T04:04:01;9.40;99.90
24049;DHT22;12250;50.956;4.746;2023-02-04T04:06:27;9.40;99.90
24049;DHT22;12250;50.956;4.746;2023-02-04T04:08:52;9.40;99.90
24049;DHT22;12250;50.956;4.746;2023-02-04T04:11:18;9.40;99.90
24049;DHT22;12250;50.956;4.746;2023-02-04T04:13:44;9.40;99.90
24049;DHT22;12250;50.956;4.746;2023-02-04T04:16:09;9.40;99.90
24049;DHT22;12250;50.956;4.746;2023-02-04T04:18:35;9.40;99.90
24049;DHT22;12250;50.956;4.746;2023-02-04T04:21:01;9.40;99.90
24049;DHT22;12250;50.956;4.746;2023-02-04T04:23:26;9.40;99.90
24049;DHT22;12250;50.956;4.746;2023-02-04T04:25:55;9.50;99.90
24049;DHT22;12250;50.956;4.746;2023-02-04T04:28:21;9.40;99.90
24049;DHT22;12250;50.956;4.746;2023-02-04T04:30:46;9.40;99.90
24049;DHT22;12250;50.956;4.746;2023-02-04T04:33:12;9.40;99.90
24049;DHT22;12250;50.956;4.746;2023-02-04T04:35:38;9.50;99.90
24049;DHT22;12250;50.956;4.746;2023-02-04T04:38:03;9.40;99.90
24049;DHT22;12250;50.956;4.746;2023-02-04T04:40:29;9.40;99.90
24049;DHT22;12250;50.956;4.746;2023-02-04T04:42:55;9.40;99.90
24049;DHT22;12250;50.956;4.746;2023-02-04T04:45:20;9.40;99.90
24049;DHT22;12250;50.956;4.746;2023-02-04T04:47:47;9.40;99.90
24049;DHT22;12250;50.956;4.746;2023-02-04T04:50:12;9.40;99.90
24049;DHT22;12250;50.956;4.746;2023-02-04T04:52:38;9.40;99.90
24049;DHT22;12250;50.956;4.746;2023-02-04T04:55:04;9.40;99.90
24049;DHT22;12250;50.956;4.746;2023-02-04T04:57:30;9.40;99.90
24049;DHT22;12250;50.956;4.746;2023-02-04T04:59:56;9.40;99.90
24049;DHT22;12250;50.956;4.746;2023-02-04T05:02:21;9.40;99.90
24049;DHT22;12250;50.956;4.746;2023-02-04T05:04:47;9.50;99.90
24049;DHT22;12250;50.956;4.746;2023-02-04T05:07:12;9.40;99.90
24049;DHT22;12250;50.956;4.746;2023-02-04T05:09:38;9.40;99.90
24049;DHT22;12250;50.956;4.746;2023-02-04T05:12:04;9.40;99.90
24049;DHT22;12250;50.956;4.746;2023-02-04T05:14:30;9.40;99.90
24049;DHT22;12250;50.956;4.746;2023-02-04T05:16:55;9.40;99.90
24049;DHT22;12250;50.956;4.746;2023-02-04T05:19:21;9.40;99.90
24049;DHT22;12250;50.956;4.746;2023-02-04T05:21:46;9.40;99.90
24049;DHT22;12250;50.956;4.746;2023-02-04T05:24:12;9.40;99.90
24049;DHT22;12250;50.956;4.746;2023-02-04T05:26:38;9.50;99.90
24049;DHT22;12250;50.956;4.746;2023-02-04T05:29:04;9.50;99.90
24049;DHT22;12250;50.956;4.746;2023-02-04T05:31:30;9.50;99.90
24049;DHT22;12250;50.956;4.746;2023-02-04T05:33:56;9.50;99.90
24049;DHT22;12250;50.956;4.746;2023-02-04T05:36:21;9.50;99.90
24049;DHT22;12250;50.956;4.746;2023-02-04T05:38:47;9.50;99.90
24049;DHT22;12250;50.956;4.746;2023-02-04T05:41:13;9.40;99.90
24049;DHT22;12250;50.956;4.746;2023-02-04T05:43:38;9.50;99.90
24049;DHT22;12250;50.956;4.746;2023-02-04T05:46:04;9.40;99.90
24049;DHT22;12250;50.956;4.746;2023-02-04T05:48:30;9.40;99.90
24049;DHT22;12250;50.956;4.746;2023-02-04T05:50:55;9.40;99.90
24049;DHT22;12250;50.956;4.746;2023-02-04T05:53:21;9.40;99.90
24049;DHT22;12250;50.956;4.746;2023-02-04T05:55:47;9.40;99.90
24049;DHT22;12250;50.956;4.746;2023-02-04T05:58:13;9.30;99.90
24049;DHT22;12250;50.956;4.746;2023-02-04T06:00:39;9.40;99.90
24049;DHT22;12250;50.956;4.746;2023-02-04T06:03:04;9.30;99.90
24049;DHT22;12250;50.956;4.746;2023-02-04T06:05:30;9.30;99.90
24049;DHT22;12250;50.956;4.746;2023-02-04T06:07:56;9.20;99.90
24049;DHT22;12250;50.956;4.746;2023-02-04T06:10:22;9.20;99.90
24049;DHT22;12250;50.956;4.746;2023-02-04T06:12:48;9.20;99.90
24049;DHT22;12250;50.956;4.746;2023-02-04T06:15:13;9.20;99.90
24049;DHT22;12250;50.956;4.746;2023-02-04T06:17:39;9.20;99.90
24049;DHT22;12250;50.956;4.746;2023-02-04T06:20:06;9.20;99.90
24049;DHT22;12250;50.956;4.746;2023-02-04T06:22:32;9.20;99.90
24049;DHT22;12250;50.956;4.746;2023-02-04T06:24:57;9.20;99.90
24049;DHT22;12250;50.956;4.746;2023-02-04T06:27:23;9.30;99.90
24049;DHT22;12250;50.956;4.746;2023-02-04T06:29:50;9.20;99.90
24049;DHT22;12250;50.956;4.746;2023-02-04T06:32:16;9.30;99.90
24049;DHT22;12250;50.956;4.746;2023-02-04T06:34:42;9.30;99.90
24049;DHT22;12250;50.956;4.746;2023-02-04T06:37:08;9.20;99.90
24049;DHT22;12250;50.956;4.746;2023-02-04T06:39:34;9.20;99.90
24049;DHT22;12250;50.956;4.746;2023-02-04T06:41:59;9.20;99.90
24049;DHT22;12250;50.956;4.746;2023-02-04T06:44:25;9.20;99.90
24049;DHT22;12250;50.956;4.746;2023-02-04T06:46:51;9.20;99.90
24049;DHT22;12250;50.956;4.746;2023-02-04T06:49:16;9.20;99.90
24049;DHT22;12250;50.956;4.746;2023-02-04T06:51:42;9.30;99.90
24049;DHT22;12250;50.956;4.746;2023-02-04T06:54:07;9.30;99.90
24049;DHT22;12250;50.956;4.746;2023-02-04T06:56:33;9.30;99.90
24049;DHT22;12250;50.956;4.746;2023-02-04T06:58:59;9.40;99.90
24049;DHT22;12250;50.956;4.746;2023-02-04T07:01:24;9.40;99.90
24049;DHT22;12250;50.956;4.746;2023-02-04T07:03:50;9.40;99.90
24049;DHT22;12250;50.956;4.746;2023-02-04T07:06:16;9.40;99.90
24049;DHT22;12250;50.956;4.746;2023-02-04T07:08:42;9.40;99.90
24049;DHT22;12250;50.956;4.746;2023-02-04T07:11:07;9.40;99.90
24049;DHT22;12250;50.956;4.746;2023-02-04T07:13:33;9.50;99.90
24049;DHT22;12250;50.956;4.746;2023-02-04T07:15:59;9.50;99.90
24049;DHT22;12250;50.956;4.746;2023-02-04T07:18:24;9.50;99.90
24049;DHT22;12250;50.956;4.746;2023-02-04T07:20:50;9.40;99.90
24049;DHT22;12250;50.956;4.746;2023-02-04T07:23:15;9.40;99.90
24049;DHT22;12250;50.956;4.746;2023-02-04T07:25:41;9.40;99.90
24049;DHT22;12250;50.956;4.746;2023-02-04T07:28:08;9.40;99.90
24049;DHT22;12250;50.956;4.746;2023-02-04T07:30:34;9.40;99.90
24049;DHT22;12250;50.956;4.746;2023-02-04T07:33:00;9.50;99.90
24049;DHT22;12250;50.956;4.746;2023-02-04T07:35:25;9.50;99.90
24049;DHT22;12250;50.956;4.746;2023-02-04T07:37:51;9.50;99.90
24049;DHT22;12250;50.956;4.746;2023-02-04T07:40:17;9.50;99.90
24049;DHT22;12250;50.956;4.746;2023-02-04T07:42:42;9.60;99.90
24049;DHT22;12250;50.956;4.746;2023-02-04T07:45:08;9.60;99.90
24049;DHT22;12250;50.956;4.746;2023-02-04T07:47:34;9.60;99.90
24049;DHT22;12250;50.956;4.746;2023-02-04T07:50:01;9.60;99.90
24049;DHT22;12250;50.956;4.746;2023-02-04T07:52:26;9.60;99.90
24049;DHT22;12250;50.956;4.746;2023-02-04T07:54:52;9.70;99.90
24049;DHT22;12250;50.956;4.746;2023-02-04T07:57:20;9.70;99.90
24049;DHT22;12250;50.956;4.746;2023-02-04T07:59:46;9.60;99.90
24049;DHT22;12250;50.956;4.746;2023-02-04T08:02:12;9.70;99.90
24049;DHT22;12250;50.956;4.746;2023-02-04T08:04:37;9.70;99.90
24049;DHT22;12250;50.956;4.746;2023-02-04T08:07:04;9.70;99.90
24049;DHT22;12250;50.956;4.746;2023-02-04T08:09:29;9.70;99.90
24049;DHT22;12250;50.956;4.746;2023-02-04T08:11:55;9.70;99.90
24049;DHT22;12250;50.956;4.746;2023-02-04T08:14:20;9.80;99.90
24049;DHT22;12250;50.956;4.746;2023-02-04T08:16:46;9.80;99.90
24049;DHT22;12250;50.956;4.746;2023-02-04T08:19:12;9.90;99.90
24049;DHT22;12250;50.956;4.746;2023-02-04T08:21:44;9.90;99.90
24049;DHT22;12250;50.956;4.746;2023-02-04T08:24:13;9.90;99.90
24049;DHT22;12250;50.956;4.746;2023-02-04T08:26:40;9.90;99.90
24049;DHT22;12250;50.956;4.746;2023-02-04T08:29:07;10.00;99.90
24049;DHT22;12250;50.956;4.746;2023-02-04T08:31:33;10.00;99.90
24049;DHT22;12250;50.956;4.746;2023-02-04T08:33:59;10.00;99.90
24049;DHT22;12250;50.956;4.746;2023-02-04T08:36:25;10.10;99.90
24049;DHT22;12250;50.956;4.746;2023-02-04T08:38:50;10.20;99.90
24049;DHT22;12250;50.956;4.746;2023-02-04T08:41:16;10.20;99.90
24049;DHT22;12250;50.956;4.746;2023-02-04T08:43:42;10.20;99.90
24049;DHT22;12250;50.956;4.746;2023-02-04T08:46:07;10.20;99.90
24049;DHT22;12250;50.956;4.746;2023-02-04T08:48:33;10.20;99.90
24049;DHT22;12250;50.956;4.746;2023-02-04T08:50:59;10.30;99.90
24049;DHT22;12250;50.956;4.746;2023-02-04T08:53:24;10.30;99.90
24049;DHT22;12250;50.956;4.746;2023-02-04T08:55:50;10.30;99.90
24049;DHT22;12250;50.956;4.746;2023-02-04T08:58:15;10.30;99.90
24049;DHT22;12250;50.956;4.746;2023-02-04T09:00:41;10.30;99.90
24049;DHT22;12250;50.956;4.746;2023-02-04T09:03:07;10.20;99.90
24049;DHT22;12250;50.956;4.746;2023-02-04T09:05:32;10.20;99.90
24049;DHT22;12250;50.956;4.746;2023-02-04T09:07:58;10.20;99.90
24049;DHT22;12250;50.956;4.746;2023-02-04T09:10:24;10.20;99.90
24049;DHT22;12250;50.956;4.746;2023-02-04T09:12:49;10.20;99.90
24049;DHT22;12250;50.956;4.746;2023-02-04T09:15:21;10.20;99.90
24049;DHT22;12250;50.956;4.746;2023-02-04T09:17:48;10.30;99.90
24049;DHT22;12250;50.956;4.746;2023-02-04T09:20:13;10.40;99.90
24049;DHT22;12250;50.956;4.746;2023-02-04T09:22:39;10.40;99.90
24049;DHT22;12250;50.956;4.746;2023-02-04T09:25:05;10.50;99.90
24049;DHT22;12250;50.956;4.746;2023-02-04T09:27:31;10.60;99.90
24049;DHT22;12250;50.956;4.746;2023-02-04T09:29:57;10.60;99.90
24049;DHT22;12250;50.956;4.746;2023-02-04T09:32:22;10.70;99.90
24049;DHT22;12250;50.956;4.746;2023-02-04T09:34:48;10.70;99.90
24049;DHT22;12250;50.956;4.746;2023-02-04T09:37:14;10.70;99.90
24049;DHT22;12250;50.956;4.746;2023-02-04T09:39:39;10.80;99.90
24049;DHT22;12250;50.956;4.746;2023-02-04T09:42:06;10.90;99.90
24049;DHT22;12250;50.956;4.746;2023-02-04T09:44:33;10.90;99.90
24049;DHT22;12250;50.956;4.746;2023-02-04T09:47:00;11.00;99.90
24049;DHT22;12250;50.956;4.746;2023-02-04T09:49:26;11.00;99.90
24049;DHT22;12250;50.956;4.746;2023-02-04T09:51:53;11.00;99.90
24049;DHT22;12250;50.956;4.746;2023-02-04T09:54:20;11.10;99.90
24049;DHT22;12250;50.956;4.746;2023-02-04T09:56:47;11.20;99.90
24049;DHT22;12250;50.956;4.746;2023-02-04T09:59:18;11.20;99.90
24049;DHT22;12250;50.956;4.746;2023-02-04T10:01:50;11.20;99.90
24049;DHT22;12250;50.956;4.746;2023-02-04T10:04:20;11.30;99.90
24049;DHT22;12250;50.956;4.746;2023-02-04T10:06:46;11.40;99.90
24049;DHT22;12250;50.956;4.746;2023-02-04T10:09:13;11.50;99.90
24049;DHT22;12250;50.956;4.746;2023-02-04T10:11:41;11.50;99.90
24049;DHT22;12250;50.956;4.746;2023-02-04T10:14:13;11.60;99.90
24049;DHT22;12250;50.956;4.746;2023-02-04T10:16:40;11.60;99.90
24049;DHT22;12250;50.956;4.746;2023-02-04T10:19:12;11.70;99.90
24049;DHT22;12250;50.956;4.746;2023-02-04T10:21:39;11.70;99.90
24049;DHT22;12250;50.956;4.746;2023-02-04T10:24:13;11.80;99.90
24049;DHT22;12250;50.956;4.746;2023-02-04T10:26:39;11.80;99.90
24049;DHT22;12250;50.956;4.746;2023-02-04T10:29:11;11.90;99.90
24049;DHT22;12250;50.956;4.746;2023-02-04T10:31:39;11.80;99.90
24049;DHT22;12250;50.956;4.746;2023-02-04T10:34:17;11.80;99.90
24049;DHT22;12250;50.956;4.746;2023-02-04T10:36:45;11.80;99.90
24049;DHT22;12250;50.956;4.746;2023-02-04T10:39:13;11.70;99.90
24049;DHT22;12250;50.956;4.746;2023-02-04T10:41:44;11.60;99.90
24049;DHT22;12250;50.956;4.746;2023-02-04T10:44:12;11.50;99.90
24049;DHT22;12250;50.956;4.746;2023-02-04T10:46:38;11.60;99.90
24049;DHT22;12250;50.956;4.746;2023-02-04T10:49:04;11.60;99.90
24049;DHT22;12250;50.956;4.746;2023-02-04T10:51:31;11.60;99.90
24049;DHT22;12250;50.956;4.746;2023-02-04T10:53:57;11.60;99.90
24049;DHT22;12250;50.956;4.746;2023-02-04T10:59:42;11.50;99.90
24049;DHT22;12250;50.956;4.746;2023-02-04T11:02:38;11.60;99.90
24049;DHT22;12250;50.956;4.746;2023-02-04T11:05:11;11.50;99.90
24049;DHT22;12250;50.956;4.746;2023-02-04T11:07:38;11.50;99.90
24049;DHT22;12250;50.956;4.746;2023-02-04T11:10:04;11.50;99.90
24049;DHT22;12250;50.956;4.746;2023-02-04T11:12:42;11.50;99.90
24049;DHT22;12250;50.956;4.746;2023-02-04T11:15:42;11.40;99.90
24049;DHT22;12250;50.956;4.746;2023-02-04T11:18:25;11.40;99.90
24049;DHT22;12250;50.956;4.746;2023-02-04T11:20:54;11.40;99.90
24049;DHT22;12250;50.956;4.746;2023-02-04T11:23:31;11.50;99.90
24049;DHT22;12250;50.956;4.746;2023-02-04T11:28:55;11.50;99.90
24049;DHT22;12250;50.956;4.746;2023-02-04T11:33:49;11.50;99.90
24049;DHT22;12250;50.956;4.746;2023-02-04T11:36:16;11.50;99.90
24049;DHT22;12250;50.956;4.746;2023-02-04T11:38:47;11.60;99.90
24049;DHT22;12250;50.956;4.746;2023-02-04T11:41:26;11.60;99.90
24049;DHT22;12250;50.956;4.746;2023-02-04T11:43:54;11.70;99.90
24049;DHT22;12250;50.956;4.746;2023-02-04T11:46:20;11.90;99.90
24049;DHT22;12250;50.956;4.746;2023-02-04T11:48:53;11.90;99.90
24049;DHT22;12250;50.956;4.746;2023-02-04T11:51:22;11.90;99.90
24049;DHT22;12250;50.956;4.746;2023-02-04T11:53:52;11.80;99.90
24049;DHT22;12250;50.956;4.746;2023-02-04T11:56:19;11.70;99.90
24049;DHT22;12250;50.956;4.746;2023-02-04T11:58:46;11.70;99.90
24049;DHT22;12250;50.956;4.746;2023-02-04T12:01:20;11.80;99.90
24049;DHT22;12250;50.956;4.746;2023-02-04T12:03:48;12.00;99.90
24049;DHT22;12250;50.956;4.746;2023-02-04T12:06:34;12.10;99.90
24049;DHT22;12250;50.956;4.746;2023-02-04T12:09:27;12.20;99.90
24049;DHT22;12250;50.956;4.746;2023-02-04T12:11:59;12.30;99.90
24049;DHT22;12250;50.956;4.746;2023-02-04T12:14:31;12.30;99.90
24049;DHT22;12250;50.956;4.746;2023-02-04T12:16:57;12.40;99.90
24049;DHT22;12250;50.956;4.746;2023-02-04T12:19:23;12.50;99.90
24049;DHT22;12250;50.956;4.746;2023-02-04T12:21:49;12.50;99.90
24049;DHT22;12250;50.956;4.746;2023-02-04T12:24:14;12.50;99.90
24049;DHT22;12250;50.956;4.746;2023-02-04T12:26:40;12.40;99.90
24049;DHT22;12250;50.956;4.746;2023-02-04T12:29:06;12.30;99.90
24049;DHT22;12250;50.956;4.746;2023-02-04T12:31:32;12.20;99.90
24049;DHT22;12250;50.956;4.746;2023-02-04T12:33:59;12.20;99.90
24049;DHT22;12250;50.956;4.746;2023-02-04T12:36:25;12.00;99.90
24049;DHT22;12250;50.956;4.746;2023-02-04T12:38:55;12.00;99.90
24049;DHT22;12250;50.956;4.746;2023-02-04T12:41:23;11.90;99.90
24049;DHT22;12250;50.956;4.746;2023-02-04T12:43:49;11.90;99.90
24049;DHT22;12250;50.956;4.746;2023-02-04T12:46:15;11.80;99.90
24049;DHT22;12250;50.956;4.746;2023-02-04T12:48:41;11.70;99.90
24049;DHT22;12250;50.956;4.746;2023-02-04T12:51:08;11.80;99.90
24049;DHT22;12250;50.956;4.746;2023-02-04T12:53:34;11.80;99.90
24049;DHT22;12250;50.956;4.746;2023-02-04T12:56:00;11.90;99.90
24049;DHT22;12250;50.956;4.746;2023-02-04T12:58:28;12.00;99.90
24049;DHT22;12250;50.956;4.746;2023-02-04T13:00:53;12.10;99.90
24049;DHT22;12250;50.956;4.746;2023-02-04T13:03:19;12.30;99.90
24049;DHT22;12250;50.956;4.746;2023-02-04T13:05:45;12.40;99.90
24049;DHT22;12250;50.956;4.746;2023-02-04T13:08:11;12.50;99.90
24049;DHT22;12250;50.956;4.746;2023-02-04T13:10:36;12.60;99.90
24049;DHT22;12250;50.956;4.746;2023-02-04T13:13:02;12.70;99.90
24049;DHT22;12250;50.956;4.746;2023-02-04T13:15:27;12.60;99.90
24049;DHT22;12250;50.956;4.746;2023-02-04T13:17:53;12.60;99.90
24049;DHT22;12250;50.956;4.746;2023-02-04T13:20:19;12.50;99.90
24049;DHT22;12250;50.956;4.746;2023-02-04T13:22:45;12.50;99.90
24049;DHT22;12250;50.956;4.746;2023-02-04T13:25:10;12.50;99.90
24049;DHT22;12250;50.956;4.746;2023-02-04T13:27:37;12.50;99.90
24049;DHT22;12250;50.956;4.746;2023-02-04T13:30:08;12.50;99.90
24049;DHT22;12250;50.956;4.746;2023-02-04T13:32:36;12.50;99.90
24049;DHT22;12250;50.956;4.746;2023-02-04T13:35:01;12.40;99.90
24049;DHT22;12250;50.956;4.746;2023-02-04T13:37:27;12.40;99.90
24049;DHT22;12250;50.956;4.746;2023-02-04T13:39:53;12.40;99.90
24049;DHT22;12250;50.956;4.746;2023-02-04T13:42:18;12.30;99.90
24049;DHT22;12250;50.956;4.746;2023-02-04T13:44:44;12.30;99.90
24049;DHT22;12250;50.956;4.746;2023-02-04T13:47:11;12.20;99.90
24049;DHT22;12250;50.956;4.746;2023-02-04T13:49:36;12.20;99.90
24049;DHT22;12250;50.956;4.746;2023-02-04T13:52:02;12.20;99.90
24049;DHT22;12250;50.956;4.746;2023-02-04T13:54:28;12.30;99.90
24049;DHT22;12250;50.956;4.746;2023-02-04T13:56:53;12.30;99.90
24049;DHT22;12250;50.956;4.746;2023-02-04T13:59:19;12.40;99.90
24049;DHT22;12250;50.956;4.746;2023-02-04T14:01:45;12.40;99.90
24049;DHT22;12250;50.956;4.746;2023-02-04T14:04:10;12.40;99.90
24049;DHT22;12250;50.956;4.746;2023-02-04T14:06:36;12.40;99.90
24049;DHT22;12250;50.956;4.746;2023-02-04T14:09:08;12.40;99.90
24049;DHT22;12250;50.956;4.746;2023-02-04T14:11:35;12.40;99.90
24049;DHT22;12250;50.956;4.746;2023-02-04T14:14:01;12.40;99.90
24049;DHT22;12250;50.956;4.746;2023-02-04T14:16:26;12.40;99.90
24049;DHT22;12250;50.956;4.746;2023-02-04T14:18:52;12.40;99.90
24049;DHT22;12250;50.956;4.746;2023-02-04T14:21:18;12.50;99.90
24049;DHT22;12250;50.956;4.746;2023-02-04T14:23:43;12.50;99.90
24049;DHT22;12250;50.956;4.746;2023-02-04T14:26:09;12.60;99.90
24049;DHT22;12250;50.956;4.746;2023-02-04T14:28:35;12.70;99.90
24049;DHT22;12250;50.956;4.746;2023-02-04T14:31:00;12.70;99.90
24049;DHT22;12250;50.956;4.746;2023-02-04T14:33:26;12.70;99.90
24049;DHT22;12250;50.956;4.746;2023-02-04T14:35:51;12.80;99.90
24049;DHT22;12250;50.956;4.746;2023-02-04T14:38:17;12.80;99.90
24049;DHT22;12250;50.956;4.746;2023-02-04T14:40:43;12.90;99.90
24049;DHT22;12250;50.956;4.746;2023-02-04T14:43:09;13.10;99.90
24049;DHT22;12250;50.956;4.746;2023-02-04T14:45:38;13.20;99.90
24049;DHT22;12250;50.956;4.746;2023-02-04T14:48:05;13.20;99.90
24049;DHT22;12250;50.956;4.746;2023-02-04T14:50:31;13.30;99.90
24049;DHT22;12250;50.956;4.746;2023-02-04T14:52:56;13.30;99.90
24049;DHT22;12250;50.956;4.746;2023-02-04T14:55:23;13.40;99.90
24049;DHT22;12250;50.956;4.746;2023-02-04T14:57:49;13.40;99.90
24049;DHT22;12250;50.956;4.746;2023-02-04T15:00:15;13.40;99.90
24049;DHT22;12250;50.956;4.746;2023-02-04T15:02:41;13.40;99.90
24049;DHT22;12250;50.956;4.746;2023-02-04T15:05:07;13.50;99.90
24049;DHT22;12250;50.956;4.746;2023-02-04T15:07:33;13.40;99.90
24049;DHT22;12250;50.956;4.746;2023-02-04T15:09:59;13.40;99.90
24049;DHT22;12250;50.956;4.746;2023-02-04T15:12:25;13.30;99.90
24049;DHT22;12250;50.956;4.746;2023-02-04T15:14:50;13.20;99.90
24049;DHT22;12250;50.956;4.746;2023-02-04T15:17:16;13.10;99.90
24049;DHT22;12250;50.956;4.746;2023-02-04T15:19:43;13.10;99.90
24049;DHT22;12250;50.956;4.746;2023-02-04T15:22:09;13.00;99.90
24049;DHT22;12250;50.956;4.746;2023-02-04T15:24:35;13.00;99.90
24049;DHT22;12250;50.956;4.746;2023-02-04T15:27:01;13.00;99.90
24049;DHT22;12250;50.956;4.746;2023-02-04T15:29:26;13.00;99.90
24049;DHT22;12250;50.956;4.746;2023-02-04T15:31:52;12.90;99.90
24049;DHT22;12250;50.956;4.746;2023-02-04T15:34:18;13.00;99.90
24049;DHT22;12250;50.956;4.746;2023-02-04T15:36:43;12.90;99.90
24049;DHT22;12250;50.956;4.746;2023-02-04T15:39:09;12.90;99.90
24049;DHT22;12250;50.956;4.746;2023-02-04T15:41:35;12.80;99.90
24049;DHT22;12250;50.956;4.746;2023-02-04T15:44:00;12.80;99.90
24049;DHT22;12250;50.956;4.746;2023-02-04T15:46:27;12.70;99.90